createdAt,value
2022-10-28T00:02:23.823Z,2.07
2022-10-28T00:04:50.404Z,1.70
2022-10-28T00:07:16.989Z,2.00
2022-10-28T00:09:43.695Z,1.90
2022-10-28T00:12:10.291Z,1.93
2022-10-28T00:14:36.962Z,1.60
2022-10-28T00:17:03.567Z,1.97
2022-10-28T00:19:30.478Z,2.00
2022-10-28T00:21:57.079Z,1.70
2022-10-28T00:24:23.805Z,2.07
2022-10-28T00:26:50.418Z,2.00
2022-10-28T00:29:19.758Z,1.93
2022-10-28T00:31:47.290Z,1.90
2022-10-28T00:34:19.267Z,2.10
2022-10-28T00:36:47.434Z,2.10
2022-10-28T00:39:25.087Z,1.90
2022-10-28T00:41:57.096Z,1.80
2022-10-28T00:45:01.807Z,2.30
2022-10-28T00:48:02.894Z,2.23
2022-10-28T00:50:54.328Z,1.97
2022-10-28T00:53:32.365Z,2.10
2022-10-28T00:56:02.067Z,1.83
2022-10-28T00:58:29.543Z,2.50
2022-10-28T01:00:56.653Z,2.20
2022-10-28T01:03:23.687Z,2.10
2022-10-28T01:05:51.787Z,2.20
2022-10-28T01:08:19.334Z,2.27
2022-10-28T01:11:26.302Z,1.97
2022-10-28T01:14:01.756Z,2.20
2022-10-28T01:16:52.561Z,2.10
2022-10-28T01:19:44.704Z,2.00
2022-10-28T01:22:34.091Z,2.03
2022-10-28T01:25:30.505Z,2.40
2022-10-28T01:28:15.680Z,2.43
2022-10-28T01:31:21.920Z,2.13
2022-10-28T01:33:54.429Z,2.27
2022-10-28T01:36:51.964Z,2.13
2022-10-28T01:39:35.540Z,2.40
2022-10-28T01:42:14.147Z,2.07
2022-10-28T01:44:54.314Z,2.10
2022-10-28T01:47:51.683Z,2.00
2022-10-28T01:50:26.958Z,2.50
2022-10-28T01:52:57.595Z,2.00
2022-10-28T01:55:30.293Z,1.93
2022-10-28T01:58:01.259Z,2.70
2022-10-28T02:00:28.321Z,2.00
2022-10-28T02:02:56.432Z,2.07
2022-10-28T02:05:41.698Z,2.27
2022-10-28T02:08:20.096Z,2.37
2022-10-28T02:11:11.794Z,2.20
2022-10-28T02:13:44.269Z,2.03
2022-10-28T02:16:28.852Z,2.50
2022-10-28T02:18:55.412Z,2.10
2022-10-28T02:21:37.464Z,2.17
2022-10-28T02:24:28.880Z,2.57
2022-10-28T02:27:15.676Z,3.13
2022-10-28T02:29:51.111Z,2.10
2022-10-28T02:32:23.057Z,2.33
2022-10-28T02:34:55.074Z,2.20
2022-10-28T02:37:27.873Z,2.37
2022-10-28T02:40:03.005Z,2.23
2022-10-28T02:42:33.903Z,2.50
2022-10-28T02:45:11.992Z,2.47
2022-10-28T02:47:43.060Z,2.70
2022-10-28T02:50:15.717Z,3.00
2022-10-28T02:52:45.096Z,2.80
2022-10-28T02:55:11.949Z,2.40
2022-10-28T02:57:44.794Z,2.20
2022-10-28T03:00:16.374Z,2.73
2022-10-28T03:02:43.073Z,2.40
2022-10-28T03:05:10.443Z,2.80
2022-10-28T03:07:37.130Z,2.27
2022-10-28T03:10:04.107Z,2.30
2022-10-28T03:12:30.701Z,2.97
2022-10-28T03:14:57.283Z,2.20
2022-10-28T03:17:23.958Z,2.33
2022-10-28T03:19:50.547Z,2.00
2022-10-28T03:22:17.191Z,2.23
2022-10-28T03:24:43.814Z,2.07
2022-10-28T03:27:10.407Z,2.67
2022-10-28T03:29:37.021Z,2.23
2022-10-28T03:32:03.690Z,2.70
2022-10-28T03:34:30.343Z,2.40
2022-10-28T03:36:56.893Z,2.37
2022-10-28T03:39:23.611Z,2.57
2022-10-28T03:41:50.248Z,2.77
2022-10-28T03:44:16.825Z,2.77
2022-10-28T03:46:43.421Z,3.00
2022-10-28T03:49:10.041Z,2.43
2022-10-28T03:51:36.619Z,3.00
2022-10-28T03:54:03.359Z,2.83
2022-10-28T03:56:29.968Z,2.70
2022-10-28T03:58:56.537Z,3.00
2022-10-28T04:01:23.183Z,3.10
2022-10-28T04:03:49.874Z,2.80
2022-10-28T04:06:17.127Z,2.80
2022-10-28T04:08:43.759Z,2.87
2022-10-28T04:11:10.347Z,2.97
2022-10-28T04:13:36.945Z,2.57
2022-10-28T04:16:03.762Z,2.77
2022-10-28T04:18:30.501Z,2.90
2022-10-28T04:20:57.162Z,3.30
2022-10-28T04:23:23.770Z,3.57
2022-10-28T04:25:54.282Z,3.57
2022-10-28T04:28:24.131Z,2.80
2022-10-28T04:30:50.737Z,3.13
2022-10-28T04:33:17.379Z,3.00
2022-10-28T04:35:45.000Z,2.97
2022-10-28T04:38:12.940Z,2.90
2022-10-28T04:40:39.950Z,3.20
2022-10-28T04:43:08.602Z,3.70
2022-10-28T04:45:36.801Z,3.20
2022-10-28T04:48:03.678Z,3.30
2022-10-28T04:50:30.333Z,3.67
2022-10-28T04:53:00.301Z,3.40
2022-10-28T04:55:27.066Z,3.63
2022-10-28T04:58:06.220Z,15.77
2022-10-28T05:00:32.851Z,6.97
2022-10-28T05:03:03.249Z,3.80
2022-10-28T05:05:30.158Z,4.17
2022-10-28T05:07:57.154Z,4.37
2022-10-28T05:10:24.523Z,3.53
2022-10-28T05:12:51.386Z,3.50
2022-10-28T05:15:18.108Z,4.53
2022-10-28T05:17:46.539Z,3.87
2022-10-28T05:20:16.107Z,3.73
2022-10-28T05:22:48.093Z,4.17
2022-10-28T05:25:14.900Z,3.93
2022-10-28T05:27:41.704Z,3.87
2022-10-28T05:30:09.615Z,4.77
2022-10-28T05:32:36.489Z,4.00
2022-10-28T05:35:05.692Z,4.03
2022-10-28T05:37:32.440Z,3.83
2022-10-28T05:39:59.119Z,5.90
2022-10-28T05:42:25.708Z,5.57
2022-10-28T05:44:52.358Z,12.10
2022-10-28T05:47:19.011Z,6.50
2022-10-28T05:49:45.689Z,4.77
2022-10-28T05:52:12.376Z,4.87
2022-10-28T05:54:38.962Z,3.50
2022-10-28T05:57:05.663Z,5.03
2022-10-28T05:59:32.305Z,4.03
2022-10-28T06:01:59.025Z,4.30
2022-10-28T06:04:25.654Z,3.73
2022-10-28T06:06:55.288Z,3.77
2022-10-28T06:09:22.141Z,4.30
2022-10-28T06:11:47.282Z,3.93
2022-10-28T06:14:13.872Z,4.20
2022-10-28T06:16:40.540Z,4.93
2022-10-28T06:19:07.467Z,5.37
2022-10-28T06:21:34.059Z,5.27
2022-10-28T06:24:00.696Z,6.60
2022-10-28T06:26:27.290Z,7.13
2022-10-28T06:28:53.932Z,6.27
2022-10-28T06:31:20.542Z,5.53
2022-10-28T06:33:47.152Z,6.43
2022-10-28T06:36:13.851Z,5.73
2022-10-28T06:38:40.577Z,6.40
2022-10-28T06:41:07.243Z,5.80
2022-10-28T06:43:33.844Z,6.47
2022-10-28T06:46:02.192Z,6.30
2022-10-28T06:48:30.316Z,6.27
2022-10-28T06:50:58.166Z,6.47
2022-10-28T06:53:25.516Z,6.23
2022-10-28T06:55:56.226Z,6.13
2022-10-28T06:58:25.796Z,6.87
2022-10-28T07:00:53.317Z,7.20
2022-10-28T07:03:20.053Z,6.73
2022-10-28T07:05:49.242Z,7.20
2022-10-28T07:08:15.918Z,7.70
2022-10-28T07:10:42.699Z,6.23
2022-10-28T07:13:09.454Z,7.77
2022-10-28T07:15:36.066Z,8.10
2022-10-28T07:18:02.802Z,8.07
2022-10-28T07:20:32.049Z,7.57
2022-10-28T07:23:02.631Z,6.53
2022-10-28T07:25:30.889Z,6.67
2022-10-28T07:27:58.669Z,8.33
2022-10-28T07:30:25.819Z,8.27
2022-10-28T07:32:52.802Z,6.87
2022-10-28T07:35:20.573Z,7.07
2022-10-28T07:37:47.602Z,8.80
2022-10-28T07:40:14.584Z,7.60
2022-10-28T07:42:41.231Z,8.00
2022-10-28T07:45:08.223Z,6.37
2022-10-28T07:47:35.119Z,7.33
2022-10-28T07:50:02.131Z,7.57
2022-10-28T07:52:28.817Z,6.97
2022-10-28T07:54:55.447Z,7.00
2022-10-28T07:57:22.042Z,7.03
2022-10-28T07:59:48.655Z,6.30
2022-10-28T08:02:20.727Z,6.40
2022-10-28T08:04:47.820Z,6.53
2022-10-28T08:07:15.526Z,5.73
2022-10-28T08:09:42.350Z,5.60
2022-10-28T08:12:09.843Z,7.00
2022-10-28T08:14:36.570Z,6.90
2022-10-28T08:17:03.215Z,6.43
2022-10-28T08:19:29.857Z,6.50
2022-10-28T08:21:56.841Z,6.93
2022-10-28T08:24:23.759Z,6.50
2022-10-28T08:26:50.832Z,6.33
2022-10-28T08:29:17.579Z,6.10
2022-10-28T08:31:44.210Z,6.53
2022-10-28T08:34:10.901Z,6.90
2022-10-28T08:36:37.636Z,7.03
2022-10-28T08:39:04.347Z,6.97
2022-10-28T08:41:52.604Z,7.10
2022-10-28T08:44:56.946Z,8.03
2022-10-28T08:47:53.204Z,8.13
2022-10-28T08:50:23.031Z,8.20
2022-10-28T08:53:06.711Z,8.13
2022-10-28T08:55:41.341Z,7.80
2022-10-28T08:58:13.077Z,8.43
2022-10-28T09:00:43.366Z,8.33
2022-10-28T09:03:13.235Z,8.53
2022-10-28T09:05:44.867Z,8.13
2022-10-28T09:08:22.593Z,6.93
2022-10-28T09:11:01.115Z,8.10
2022-10-28T09:13:42.879Z,8.07
2022-10-28T09:16:11.303Z,7.87
2022-10-28T09:18:56.673Z,6.50
2022-10-28T09:21:32.886Z,7.03
2022-10-28T09:24:07.500Z,5.80
2022-10-28T09:27:00.940Z,6.17
2022-10-28T09:30:08.302Z,6.90
2022-10-28T09:32:37.393Z,6.13
2022-10-28T09:35:11.938Z,7.10
2022-10-28T09:37:44.631Z,6.30
2022-10-28T09:40:14.323Z,5.70
2022-10-28T09:42:49.190Z,5.23
2022-10-28T09:45:27.472Z,5.07
2022-10-28T09:48:33.150Z,4.53
2022-10-28T09:51:00.954Z,4.70
2022-10-28T09:53:42.885Z,4.40
2022-10-28T09:56:10.234Z,4.77
2022-10-28T09:58:40.290Z,5.87
2022-10-28T10:01:06.991Z,6.47
2022-10-28T10:03:33.620Z,7.53
2022-10-28T10:06:11.819Z,6.63
2022-10-28T10:08:40.616Z,6.23
2022-10-28T10:11:30.579Z,6.43
2022-10-28T10:13:59.058Z,5.90
2022-10-28T10:16:56.646Z,6.57
2022-10-28T10:19:23.374Z,6.60
2022-10-28T10:21:55.445Z,6.33
2022-10-28T10:24:23.416Z,6.10
2022-10-28T10:26:51.414Z,5.23
2022-10-28T10:29:18.478Z,5.00
2022-10-28T10:31:46.981Z,5.50
2022-10-28T10:34:27.340Z,6.20
2022-10-28T10:36:56.244Z,6.50
2022-10-28T10:39:37.361Z,6.20
2022-10-28T10:42:16.487Z,5.77
2022-10-28T10:44:43.630Z,4.67
2022-10-28T10:47:10.185Z,4.67
2022-10-28T10:49:37.120Z,4.17
2022-10-28T10:52:15.523Z,4.33
2022-10-28T10:54:56.904Z,4.20
2022-10-28T10:57:25.703Z,4.27
2022-10-28T10:59:54.441Z,4.33
2022-10-28T11:02:21.175Z,3.90
2022-10-28T11:05:02.948Z,3.60
2022-10-28T11:07:30.536Z,3.27
2022-10-28T11:09:57.490Z,3.23
2022-10-28T11:12:35.719Z,2.80
2022-10-28T11:15:23.098Z,3.33
2022-10-28T11:18:17.443Z,3.20
2022-10-28T11:20:55.129Z,2.73
2022-10-28T11:23:46.333Z,3.13
2022-10-28T11:26:16.205Z,2.87
2022-10-28T11:29:23.723Z,2.70
2022-10-28T11:32:08.970Z,2.17
2022-10-28T11:34:54.204Z,2.13
2022-10-28T11:37:47.657Z,2.47
2022-10-28T11:40:51.675Z,2.30
2022-10-28T11:43:55.062Z,2.03
2022-10-28T11:46:43.834Z,2.37
2022-10-28T11:49:25.208Z,2.00
2022-10-28T11:51:57.433Z,2.27
2022-10-28T11:54:31.691Z,1.90
2022-10-28T11:57:09.003Z,1.60
2022-10-28T12:00:00.617Z,1.67
2022-10-28T12:03:14.950Z,1.70
2022-10-28T12:05:55.020Z,1.80
2022-10-28T12:08:30.363Z,2.00
2022-10-28T12:11:11.877Z,2.00
2022-10-28T12:13:42.147Z,1.87
2022-10-28T12:16:17.326Z,1.70
2022-10-28T12:18:51.633Z,1.93
2022-10-28T12:21:24.349Z,1.90
2022-10-28T12:23:53.990Z,2.00
2022-10-28T12:26:24.738Z,2.17
2022-10-28T12:29:01.876Z,1.80
2022-10-28T12:31:34.752Z,2.00
2022-10-28T12:34:09.104Z,1.87
2022-10-28T12:37:04.580Z,1.90
2022-10-28T12:39:55.577Z,2.07
2022-10-28T12:42:40.133Z,2.20
2022-10-28T12:45:13.128Z,2.40
2022-10-28T12:47:53.111Z,2.27
2022-10-28T12:50:19.688Z,1.73
2022-10-28T12:53:01.867Z,2.23
2022-10-28T12:55:35.202Z,2.53
2022-10-28T12:58:22.323Z,2.30
2022-10-28T13:00:54.582Z,2.40
2022-10-28T13:03:21.277Z,1.90
2022-10-28T13:05:50.869Z,2.20
2022-10-28T13:08:47.187Z,2.70
2022-10-28T13:11:19.658Z,2.17
2022-10-28T13:14:18.287Z,2.43
2022-10-28T13:16:51.003Z,1.90
2022-10-28T13:19:20.329Z,2.40
2022-10-28T13:22:11.142Z,2.13
2022-10-28T13:24:55.018Z,2.37
2022-10-28T13:27:22.818Z,2.17
2022-10-28T13:29:56.433Z,2.13
2022-10-28T13:32:39.668Z,2.73
2022-10-28T13:35:24.327Z,4.13
2022-10-28T13:37:54.180Z,2.40
2022-10-28T13:40:43.056Z,2.37
2022-10-28T13:43:20.427Z,2.47
2022-10-28T13:45:48.724Z,2.00
2022-10-28T13:48:30.607Z,2.30
2022-10-28T13:51:09.439Z,2.27
2022-10-28T13:53:45.106Z,2.10
2022-10-28T13:56:20.815Z,2.40
2022-10-28T13:58:59.753Z,2.97
2022-10-28T14:01:37.557Z,2.30
2022-10-28T14:04:05.972Z,2.90
2022-10-28T14:06:35.265Z,2.30
2022-10-28T14:09:02.150Z,2.80
2022-10-28T14:11:30.460Z,2.33
2022-10-28T14:14:01.255Z,2.40
2022-10-28T14:16:44.223Z,2.73
2022-10-28T14:19:10.793Z,2.47
2022-10-28T14:21:51.513Z,2.50
2022-10-28T14:24:38.538Z,2.63
2022-10-28T14:27:08.318Z,2.93
2022-10-28T14:29:45.123Z,2.10
2022-10-28T14:32:33.492Z,2.60
2022-10-28T14:35:19.856Z,2.47
2022-10-28T14:37:55.559Z,2.90
2022-10-28T14:40:24.593Z,2.27
2022-10-28T14:43:27.913Z,2.67
2022-10-28T14:46:09.847Z,3.27
2022-10-28T14:48:47.198Z,3.10
2022-10-28T14:51:18.435Z,2.90
2022-10-28T14:53:46.504Z,3.43
2022-10-28T14:59:00.757Z,3.87
2022-10-28T15:01:35.164Z,3.17
2022-10-28T15:04:04.046Z,4.77
2022-10-28T15:06:41.690Z,3.97
2022-10-28T15:09:17.755Z,4.00
2022-10-28T15:11:49.689Z,3.97
2022-10-28T15:14:37.932Z,3.07
2022-10-28T15:17:13.966Z,3.37
2022-10-28T15:19:41.538Z,4.60
2022-10-28T15:22:20.001Z,5.00
2022-10-28T15:25:14.354Z,4.77
2022-10-28T15:27:44.700Z,6.03
2022-10-28T15:30:25.851Z,5.03
2022-10-28T15:32:54.063Z,4.43
2022-10-28T15:35:38.583Z,3.73
2022-10-28T15:38:38.185Z,2.53
2022-10-28T15:41:22.858Z,2.67
2022-10-28T15:44:03.383Z,2.70
2022-10-28T15:46:32.228Z,3.07
2022-10-28T15:49:01.354Z,2.97
2022-10-28T15:51:28.753Z,4.23
2022-10-28T15:54:10.490Z,3.03
2022-10-28T15:56:57.826Z,2.20
2022-10-28T15:59:25.734Z,3.03
2022-10-28T16:01:56.226Z,2.97
2022-10-28T16:04:23.062Z,4.77
2022-10-28T16:06:52.692Z,5.03
2022-10-28T16:09:35.008Z,13.47
2022-10-28T16:12:22.532Z,14.23
2022-10-28T16:14:57.104Z,19.83
2022-10-28T16:17:27.227Z,18.20
2022-10-28T16:20:04.409Z,15.03
2022-10-28T16:22:35.342Z,9.17
2022-10-28T16:25:03.193Z,9.43
2022-10-28T16:27:33.045Z,7.13
2022-10-28T16:29:59.770Z,6.03
2022-10-28T16:32:35.402Z,4.93
2022-10-28T16:35:02.703Z,4.63
2022-10-28T16:37:32.484Z,5.10
2022-10-28T16:39:59.255Z,4.20
2022-10-28T16:42:27.025Z,4.60
2022-10-28T16:44:53.693Z,4.03
2022-10-28T16:47:23.091Z,3.70
2022-10-28T16:49:54.116Z,4.60
2022-10-28T16:52:27.573Z,4.00
2022-10-28T16:54:54.428Z,4.30
2022-10-28T16:57:21.594Z,3.60
2022-10-28T16:59:48.507Z,3.33
2022-10-28T17:02:30.281Z,3.23
2022-10-28T17:04:57.901Z,6.00
2022-10-28T17:07:25.287Z,6.27
2022-10-28T17:09:52.525Z,4.27
2022-10-28T17:12:37.747Z,10.67
2022-10-28T17:15:18.049Z,5.50
2022-10-28T17:17:45.032Z,12.10
2022-10-28T17:20:11.871Z,10.13
2022-10-28T17:22:40.038Z,9.50
2022-10-28T17:25:08.078Z,10.20
2022-10-28T17:27:34.775Z,9.60
2022-10-28T17:30:01.493Z,11.40
2022-10-28T17:32:28.264Z,10.07
2022-10-28T17:34:54.860Z,9.23
2022-10-28T17:37:21.644Z,8.93
2022-10-28T17:39:48.342Z,7.20
2022-10-28T17:42:15.024Z,8.17
2022-10-28T17:44:41.604Z,6.90
2022-10-28T17:47:08.330Z,6.57
2022-10-28T17:49:36.568Z,5.93
2022-10-28T17:52:03.318Z,6.40
2022-10-28T17:54:29.967Z,5.13
2022-10-28T17:56:56.948Z,5.40
2022-10-28T17:59:23.735Z,4.57
2022-10-28T18:01:50.550Z,5.37
2022-10-28T18:04:17.565Z,4.70
2022-10-28T18:06:44.194Z,4.50
2022-10-28T18:09:13.845Z,5.10
2022-10-28T18:11:40.889Z,4.73
2022-10-28T18:14:07.548Z,4.83
2022-10-28T18:16:36.489Z,4.13
2022-10-28T18:19:05.488Z,4.53
2022-10-28T18:21:32.312Z,4.00
2022-10-28T18:24:04.030Z,4.50
2022-10-28T18:26:32.471Z,3.97
2022-10-28T18:28:59.543Z,3.90
2022-10-28T18:31:26.258Z,3.33
2022-10-28T18:33:53.259Z,4.23
2022-10-28T18:36:23.758Z,3.80
2022-10-28T18:38:51.176Z,4.20
2022-10-28T18:41:20.213Z,3.67
2022-10-28T18:43:47.114Z,3.33
2022-10-28T18:46:14.976Z,2.90
2022-10-28T18:48:42.226Z,2.43
2022-10-28T18:51:12.517Z,2.70
2022-10-28T18:53:41.948Z,3.17
2022-10-28T18:56:12.354Z,3.03
2022-10-28T18:58:39.383Z,3.00
2022-10-28T19:01:11.540Z,3.37
2022-10-28T19:03:38.567Z,3.50
2022-10-28T19:06:11.075Z,3.57
2022-10-28T19:08:38.248Z,3.00
2022-10-28T19:11:05.737Z,3.83
2022-10-28T19:13:34.167Z,4.00
2022-10-28T19:16:00.882Z,3.80
2022-10-28T19:18:27.898Z,3.33
2022-10-28T19:21:00.984Z,3.23
2022-10-28T19:23:27.584Z,3.63
2022-10-28T19:25:56.072Z,3.80
2022-10-28T19:28:23.253Z,3.57
2022-10-28T19:30:50.258Z,3.30
2022-10-28T19:33:16.895Z,3.17
2022-10-28T19:35:43.491Z,3.50
2022-10-28T19:38:10.124Z,4.27
2022-10-28T19:40:36.675Z,3.70
2022-10-28T19:43:03.301Z,3.30
2022-10-28T19:45:29.965Z,3.80
2022-10-28T19:48:01.190Z,3.97
2022-10-28T19:50:28.148Z,4.17
2022-10-28T19:52:54.795Z,4.13
2022-10-28T19:55:21.512Z,3.50
2022-10-28T19:57:50.404Z,4.70
2022-10-28T20:00:19.577Z,4.40
2022-10-28T20:02:47.493Z,4.13
2022-10-28T20:05:14.202Z,5.00
2022-10-28T20:07:40.793Z,4.80
2022-10-28T20:10:08.087Z,4.40
2022-10-28T20:12:34.675Z,3.60
2022-10-28T20:15:01.753Z,3.90
2022-10-28T20:17:28.361Z,3.33
2022-10-28T20:19:54.961Z,3.27
2022-10-28T20:22:21.553Z,3.47
2022-10-28T20:24:48.182Z,3.47
2022-10-28T20:27:14.831Z,3.57
2022-10-28T20:29:41.393Z,3.70
2022-10-28T20:32:08.024Z,3.40
2022-10-28T20:34:34.733Z,4.27
2022-10-28T20:37:01.932Z,4.33
2022-10-28T20:39:28.553Z,4.73
2022-10-28T20:41:55.162Z,3.80
2022-10-28T20:44:21.929Z,4.07
2022-10-28T20:46:49.024Z,3.87
2022-10-28T20:49:15.726Z,4.00
2022-10-28T20:51:42.498Z,4.13
2022-10-28T20:54:09.272Z,4.13
2022-10-28T20:56:38.321Z,3.20
2022-10-28T20:59:05.448Z,3.40
2022-10-28T21:01:37.670Z,3.37
2022-10-28T21:04:09.969Z,3.80
2022-10-28T21:06:37.984Z,3.97
2022-10-28T21:09:05.367Z,3.20
2022-10-28T21:11:32.113Z,3.23
2022-10-28T21:14:00.416Z,2.90
2022-10-28T21:16:27.915Z,2.67
2022-10-28T21:18:55.059Z,3.47
2022-10-28T21:21:23.168Z,3.13
2022-10-28T21:23:49.828Z,2.93
2022-10-28T21:26:17.067Z,3.10
2022-10-28T21:28:44.340Z,3.07
2022-10-28T21:31:16.302Z,3.30
2022-10-28T21:33:43.412Z,2.60
2022-10-28T21:36:12.916Z,3.20
2022-10-28T21:38:40.173Z,3.20
2022-10-28T21:41:12.834Z,2.90
2022-10-28T21:43:41.896Z,2.97
2022-10-28T21:46:08.874Z,3.10
2022-10-28T21:48:36.767Z,3.23
2022-10-28T21:51:08.547Z,3.03
2022-10-28T21:53:38.920Z,3.33
2022-10-28T21:56:15.584Z,3.03
2022-10-28T21:58:44.167Z,3.53
2022-10-28T22:01:13.158Z,4.50
2022-10-28T22:03:39.966Z,3.40
2022-10-28T22:06:07.039Z,3.03
2022-10-28T22:08:33.773Z,2.97
2022-10-28T22:11:06.256Z,2.60
2022-10-28T22:13:34.445Z,2.43
2022-10-28T22:16:04.041Z,2.50
2022-10-28T22:18:32.437Z,2.50
2022-10-28T22:21:11.145Z,2.93
2022-10-28T22:23:38.439Z,2.67
2022-10-28T22:26:07.979Z,2.90
2022-10-28T22:28:34.973Z,2.50
2022-10-28T22:31:04.306Z,2.87
2022-10-28T22:33:31.000Z,2.63
2022-10-28T22:35:58.984Z,2.57
2022-10-28T22:38:26.262Z,2.87
2022-10-28T22:41:11.246Z,2.73
2022-10-28T22:43:38.668Z,2.50
2022-10-28T22:46:05.854Z,3.17
2022-10-28T22:48:32.806Z,3.37
2022-10-28T22:51:00.035Z,2.87
2022-10-28T22:53:26.742Z,3.47
2022-10-28T22:55:53.943Z,2.83
2022-10-28T22:58:21.623Z,3.10
2022-10-28T23:00:48.534Z,2.60
2022-10-28T23:03:15.514Z,3.00
2022-10-28T23:05:42.406Z,2.60
2022-10-28T23:08:14.093Z,2.70
2022-10-28T23:10:40.707Z,2.90
2022-10-28T23:13:08.687Z,3.07
2022-10-28T23:15:35.247Z,3.17
2022-10-28T23:18:01.826Z,3.10
2022-10-28T23:20:28.426Z,3.77
2022-10-28T23:22:56.367Z,2.90
2022-10-28T23:25:23.205Z,2.70
2022-10-28T23:27:49.801Z,2.40
2022-10-28T23:30:16.490Z,2.30
2022-10-28T23:32:43.137Z,2.30
2022-10-28T23:35:09.972Z,2.70
2022-10-28T23:37:36.689Z,2.00
2022-10-28T23:40:03.661Z,2.40
2022-10-28T23:42:30.305Z,2.03
2022-10-28T23:44:56.937Z,2.20
2022-10-28T23:47:23.488Z,2.17
2022-10-28T23:49:50.120Z,1.83
2022-10-28T23:52:16.788Z,2.33
2022-10-28T23:54:43.397Z,2.30
2022-10-28T23:57:10.010Z,2.13
2022-10-28T23:59:36.687Z,2.50
